createdAt,value
2018-09-27T00:03:37.679Z,1.30
2018-09-27T00:08:41.691Z,1.73
2018-09-27T00:13:44.922Z,1.70
2018-09-27T00:18:48.164Z,1.50
2018-09-27T00:23:51.438Z,1.43
2018-09-27T00:28:54.667Z,1.77
2018-09-27T00:33:58.139Z,1.37
2018-09-27T00:39:01.419Z,1.30
2018-09-27T00:44:04.736Z,1.63
2018-09-27T00:49:08.066Z,1.70
2018-09-27T00:54:11.303Z,1.67
2018-09-27T00:59:14.523Z,1.43
2018-09-27T01:04:17.771Z,1.63
2018-09-27T01:09:21.003Z,1.70
2018-09-27T01:14:24.239Z,1.30
2018-09-27T01:19:27.460Z,1.70
2018-09-27T01:24:30.699Z,2.10
2018-09-27T01:29:33.908Z,1.30
2018-09-27T01:34:37.131Z,1.90
2018-09-27T01:39:40.354Z,1.90
2018-09-27T01:44:43.572Z,2.00
2018-09-27T01:49:46.859Z,1.73
2018-09-27T01:54:50.063Z,2.10
2018-09-27T01:59:53.282Z,1.60
2018-09-27T02:04:56.524Z,1.73
2018-09-27T02:09:59.751Z,1.67
2018-09-27T02:15:02.971Z,1.60
2018-09-27T02:20:06.251Z,2.23
2018-09-27T02:25:09.660Z,1.63
2018-09-27T02:30:12.891Z,1.90
2018-09-27T02:35:16.112Z,1.40
2018-09-27T02:40:19.416Z,1.63
2018-09-27T02:45:22.659Z,2.00
2018-09-27T02:50:25.883Z,1.97
2018-09-27T02:55:29.102Z,1.80
2018-09-27T03:00:32.328Z,1.63
2018-09-27T03:05:35.567Z,1.67
2018-09-27T03:10:38.815Z,1.60
2018-09-27T03:15:42.064Z,1.50
2018-09-27T03:20:45.412Z,2.60
2018-09-27T03:25:48.606Z,1.90
2018-09-27T03:30:51.880Z,2.20
2018-09-27T03:35:55.111Z,1.80
2018-09-27T03:40:58.392Z,1.40
2018-09-27T03:46:01.644Z,1.70
2018-09-27T03:51:04.933Z,1.70
2018-09-27T03:56:08.256Z,1.37
2018-09-27T04:01:11.480Z,1.87
2018-09-27T04:06:14.709Z,1.77
2018-09-27T04:11:17.944Z,1.30
2018-09-27T04:16:21.195Z,1.60
2018-09-27T04:21:24.424Z,1.63
2018-09-27T04:26:27.658Z,2.00
2018-09-27T04:31:30.867Z,2.03
2018-09-27T04:36:34.083Z,1.33
2018-09-27T04:41:37.531Z,2.07
2018-09-27T04:46:40.774Z,1.47
2018-09-27T04:51:44.044Z,1.60
2018-09-27T04:56:47.227Z,1.80
2018-09-27T05:01:50.467Z,1.93
2018-09-27T05:06:53.724Z,1.80
2018-09-27T05:11:56.963Z,1.60
2018-09-27T05:17:00.199Z,1.90
2018-09-27T05:22:03.457Z,1.47
2018-09-27T05:27:06.674Z,1.50
2018-09-27T05:32:09.904Z,2.03
2018-09-27T05:37:13.151Z,1.63
2018-09-27T05:42:16.543Z,2.00
2018-09-27T05:47:19.763Z,2.10
2018-09-27T05:52:22.972Z,1.80
2018-09-27T05:57:26.213Z,1.67
2018-09-27T06:02:29.391Z,1.77
2018-09-27T06:07:32.609Z,2.23
2018-09-27T06:12:35.826Z,1.70
2018-09-27T06:17:39.225Z,1.63
2018-09-27T06:22:42.448Z,1.77
2018-09-27T06:27:45.695Z,2.43
2018-09-27T06:32:48.920Z,1.97
2018-09-27T06:37:52.168Z,1.87
2018-09-27T06:42:55.412Z,1.93
2018-09-27T06:47:58.639Z,1.80
2018-09-27T06:53:01.928Z,1.63
2018-09-27T06:58:05.204Z,2.00
2018-09-27T07:03:08.448Z,1.90
2018-09-27T07:08:11.676Z,1.60
2018-09-27T07:13:14.896Z,1.80
2018-09-27T07:18:18.119Z,1.93
2018-09-27T07:23:21.346Z,1.43
2018-09-27T07:28:24.559Z,1.97
2018-09-27T07:33:27.825Z,1.70
2018-09-27T07:38:31.093Z,1.80
2018-09-27T07:43:34.301Z,2.10
2018-09-27T07:48:37.570Z,1.73
2018-09-27T07:53:40.763Z,1.83
2018-09-27T07:58:44.037Z,2.50
2018-09-27T08:03:47.280Z,2.00
2018-09-27T08:08:50.515Z,1.50
2018-09-27T08:13:53.839Z,2.60
2018-09-27T08:18:57.079Z,2.63
2018-09-27T08:24:00.613Z,1.97
2018-09-27T08:29:03.848Z,2.20
2018-09-27T08:34:07.092Z,2.23
2018-09-27T08:39:11.895Z,3.00
2018-09-27T08:44:15.156Z,2.97
2018-09-27T08:49:18.384Z,2.87
2018-09-27T08:54:21.604Z,3.30
2018-09-27T08:59:24.824Z,2.77
2018-09-27T09:04:28.065Z,2.37
2018-09-27T09:09:31.388Z,3.13
2018-09-27T09:14:34.559Z,3.97
2018-09-27T09:19:37.827Z,3.53
2018-09-27T09:24:41.054Z,3.77
2018-09-27T09:29:44.425Z,3.43
2018-09-27T09:34:47.499Z,3.43
2018-09-27T09:39:50.924Z,3.70
2018-09-27T09:44:54.167Z,3.73
2018-09-27T09:49:57.399Z,3.30
2018-09-27T09:55:00.592Z,3.13
2018-09-27T10:00:03.825Z,3.83
2018-09-27T10:05:07.035Z,2.70
2018-09-27T10:10:10.257Z,2.90
2018-09-27T10:15:13.482Z,2.50
2018-09-27T10:20:16.704Z,2.00
2018-09-27T10:25:19.895Z,1.53
2018-09-27T10:30:23.120Z,2.40
2018-09-27T10:35:26.344Z,1.90
2018-09-27T10:40:29.566Z,1.43
2018-09-27T10:45:32.775Z,1.50
2018-09-27T10:50:36.034Z,1.00
2018-09-27T10:55:39.262Z,1.47
2018-09-27T11:00:42.481Z,1.60
2018-09-27T11:05:45.860Z,1.20
2018-09-27T11:10:48.981Z,0.90
2018-09-27T11:15:52.200Z,1.63
2018-09-27T11:20:55.428Z,1.50
2018-09-27T11:25:58.664Z,1.47
2018-09-27T11:31:07.272Z,1.53
2018-09-27T11:36:19.304Z,1.40
2018-09-27T11:41:22.495Z,1.20
2018-09-27T11:46:25.712Z,1.50
2018-09-27T11:51:28.948Z,1.47
2018-09-27T11:56:32.204Z,1.40
2018-09-27T12:01:35.506Z,1.63
2018-09-27T12:06:38.766Z,1.23
2018-09-27T12:11:41.904Z,1.67
2018-09-27T12:16:45.166Z,1.20
2018-09-27T12:21:48.492Z,1.90
2018-09-27T12:26:51.716Z,1.53
2018-09-27T12:31:54.946Z,1.33
2018-09-27T12:36:58.927Z,1.80
2018-09-27T12:42:02.463Z,1.47
2018-09-27T12:47:05.483Z,1.83
2018-09-27T12:52:09.041Z,1.50
2018-09-27T12:57:12.049Z,1.77
2018-09-27T13:02:15.325Z,1.80
2018-09-27T13:07:18.569Z,1.20
2018-09-27T13:12:24.073Z,1.70
2018-09-27T13:17:27.483Z,1.60
2018-09-27T13:22:32.334Z,2.00
2018-09-27T13:27:35.624Z,2.10
2018-09-27T13:32:38.947Z,1.93
2018-09-27T13:37:42.164Z,1.47
2018-09-27T13:42:45.503Z,2.13
2018-09-27T13:47:48.716Z,1.30
2018-09-27T13:52:51.966Z,1.97
2018-09-27T13:57:55.199Z,1.87
2018-09-27T14:02:58.444Z,1.90
2018-09-27T14:08:01.640Z,2.23
2018-09-27T14:13:04.888Z,1.73
2018-09-27T14:18:08.371Z,1.50
2018-09-27T14:23:11.611Z,2.13
2018-09-27T14:28:17.748Z,1.90
2018-09-27T14:33:20.950Z,1.90
2018-09-27T14:38:24.172Z,1.50
2018-09-27T14:43:27.545Z,3.77
2018-09-27T14:48:30.791Z,1.93
2018-09-27T14:53:34.073Z,2.40
2018-09-27T14:58:37.370Z,2.87
2018-09-27T15:03:40.595Z,1.70
2018-09-27T15:08:43.852Z,2.30
2018-09-27T15:13:47.091Z,1.60
2018-09-27T15:18:50.335Z,1.73
2018-09-27T15:23:53.590Z,1.90
2018-09-27T15:28:56.832Z,1.63
2018-09-27T15:34:00.096Z,1.90
2018-09-27T15:39:04.360Z,1.80
2018-09-27T15:44:07.595Z,1.80
2018-09-27T15:49:10.843Z,1.83
2018-09-27T15:54:14.059Z,1.97
2018-09-27T15:59:17.328Z,1.80
2018-09-27T16:04:20.889Z,1.90
2018-09-27T16:09:24.144Z,1.73
2018-09-27T16:14:27.360Z,1.53
2018-09-27T16:19:30.612Z,1.50
2018-09-27T16:24:34.034Z,1.97
2018-09-27T16:29:37.278Z,1.77
2018-09-27T16:34:40.538Z,1.40
2018-09-27T16:39:43.832Z,1.67
2018-09-27T16:44:47.142Z,1.93
2018-09-27T16:49:50.355Z,1.60
2018-09-27T16:54:53.579Z,2.67
2018-09-27T16:59:56.824Z,1.70
2018-09-27T17:05:00.028Z,1.83
2018-09-27T17:10:03.227Z,1.33
2018-09-27T17:15:06.528Z,1.53
2018-09-27T17:20:09.768Z,1.87
2018-09-27T17:25:12.976Z,1.50
2018-09-27T17:30:16.190Z,1.30
2018-09-27T17:35:19.416Z,1.30
2018-09-27T17:40:22.796Z,1.43
2018-09-27T17:45:25.916Z,1.40
2018-09-27T17:50:29.179Z,1.83
2018-09-27T17:55:32.410Z,1.43
2018-09-27T18:00:35.628Z,1.50
2018-09-27T18:05:38.955Z,1.40
2018-09-27T18:10:42.190Z,1.40
2018-09-27T18:15:45.440Z,1.63
2018-09-27T18:20:48.815Z,1.97
2018-09-27T18:25:52.028Z,2.00
2018-09-27T18:30:55.299Z,1.70
2018-09-27T18:35:58.550Z,2.00
2018-09-27T18:41:01.796Z,1.97
2018-09-27T18:46:05.029Z,2.10
2018-09-27T18:51:08.318Z,2.30
2018-09-27T18:56:11.624Z,2.03
2018-09-27T19:01:14.992Z,2.00
2018-09-27T19:06:18.528Z,2.30
2018-09-27T19:11:21.759Z,2.50
2018-09-27T19:16:25.468Z,3.33
2018-09-27T19:21:28.691Z,3.30
2018-09-27T19:26:31.936Z,2.90
2018-09-27T19:31:35.180Z,3.30
2018-09-27T19:36:38.399Z,2.97
2018-09-27T19:41:41.683Z,3.67
2018-09-27T19:46:44.911Z,2.90
2018-09-27T19:51:48.166Z,3.20
2018-09-27T19:56:51.394Z,3.37
2018-09-27T20:01:54.627Z,3.40
2018-09-27T20:06:57.879Z,2.90
2018-09-27T20:12:01.131Z,2.93
2018-09-27T20:17:04.364Z,2.60
2018-09-27T20:22:08.529Z,3.30
2018-09-27T20:27:11.927Z,3.20
2018-09-27T20:32:15.220Z,3.13
2018-09-27T20:37:18.452Z,2.77
2018-09-27T20:42:21.717Z,2.70
2018-09-27T20:47:24.935Z,3.27
2018-09-27T20:52:28.115Z,2.83
2018-09-27T20:57:31.347Z,3.20
2018-09-27T21:02:34.601Z,2.87
2018-09-27T21:07:37.820Z,3.10
2018-09-27T21:12:41.040Z,3.00
2018-09-27T21:17:44.242Z,2.73
2018-09-27T21:22:47.456Z,2.97
2018-09-27T21:27:50.663Z,2.77
2018-09-27T21:32:53.915Z,2.87
2018-09-27T21:37:57.165Z,2.43
2018-09-27T21:43:00.419Z,2.60
2018-09-27T21:48:03.672Z,2.60
2018-09-27T21:53:06.925Z,3.03
2018-09-27T21:58:10.169Z,2.63
2018-09-27T22:03:13.424Z,3.27
2018-09-27T22:08:16.651Z,2.40
2018-09-27T22:13:19.897Z,2.67
2018-09-27T22:18:23.171Z,3.00
2018-09-27T22:23:26.404Z,2.90
2018-09-27T22:28:29.654Z,2.30
2018-09-27T22:33:32.868Z,2.53
2018-09-27T22:38:36.107Z,2.70
2018-09-27T22:43:39.348Z,2.37
2018-09-27T22:48:42.571Z,2.73
2018-09-27T22:53:45.796Z,2.93
2018-09-27T22:58:49.007Z,3.30
2018-09-27T23:03:52.232Z,3.77
2018-09-27T23:08:55.452Z,3.40
2018-09-27T23:13:58.711Z,3.37
2018-09-27T23:19:02.105Z,3.30
2018-09-27T23:24:05.312Z,3.07
2018-09-27T23:29:08.675Z,4.50
2018-09-27T23:34:11.883Z,4.33
2018-09-27T23:39:15.100Z,3.77
2018-09-27T23:44:18.323Z,4.10
2018-09-27T23:49:21.545Z,4.37
2018-09-27T23:54:24.791Z,4.10
2018-09-27T23:59:27.999Z,3.57
